Time;durP1;ratioP1;P1;durP2;ratioP2;P2;SDS_P1;SDS_P2;PMS_P1;PMS_P2;Temp;Humidity;BMP_temperature;BMP_pressure;BME280_temperature;BME280_humidity;BME280_pressure;Samples;Min_cycle;Max_cycle;Signal;HPM_P1;HPM_P2
2022/04/10 00:02:09;;;;;;;;;;;3.70;80.50;;;;;;5095012;28;19979;-83
2022/04/10 00:04:35;;;;;;;;;;;3.60;80.90;;;;;;5106311;28;19990;-82
2022/04/10 00:07:00;;;;;;;;;;;3.60;80.80;;;;;;5094612;28;19924;-83
2022/04/10 00:09:26;;;;;;;;;;;3.60;80.70;;;;;;5085653;28;19999;-84
2022/04/10 00:11:51;;;;;;;;;;;3.60;80.80;;;;;;5093141;28;19960;-83
2022/04/10 00:14:17;;;;;;;;;;;3.50;81.20;;;;;;5090482;28;19958;-83
2022/04/10 00:16:42;;;;;;;;;;;3.40;81.20;;;;;;5095408;28;19912;-83
2022/04/10 00:19:07;;;;;;;;;;;3.30;81.60;;;;;;5093206;28;20008;-83
2022/04/10 00:21:33;;;;;;;;;;;3.30;82.00;;;;;;5093330;28;20003;-83
2022/04/10 00:23:59;;;;;;;;;;;3.30;81.50;;;;;;5094256;28;20004;-83
2022/04/10 00:26:25;;;;;;;;;;;3.20;82.20;;;;;;5095826;28;19939;-82
2022/04/10 00:28:51;;;;;;;;;;;3.20;82.30;;;;;;5092720;28;20385;-83
2022/04/10 00:31:17;;;;;;;;;;;3.30;82.60;;;;;;5091970;28;19923;-83
2022/04/10 00:33:43;;;;;;;;;;;3.20;82.90;;;;;;5092772;28;19920;-83
2022/04/10 00:36:08;;;;;;;;;;;3.30;82.90;;;;;;5048775;28;20223;-83
2022/04/10 00:38:37;;;;;;;;;;;3.40;83.10;;;;;;5001690;28;19900;-84
2022/04/10 00:41:03;;;;;;;;;;;3.50;82.60;;;;;;5006797;28;20366;-83
2022/04/10 00:43:32;;;;;;;;;;;3.60;82.20;;;;;;4996800;28;20236;-83
2022/04/10 00:45:59;;;;;;;;;;;3.60;82.10;;;;;;4995686;28;20259;-83
2022/04/10 00:48:25;;;;;;;;;;;3.60;81.80;;;;;;4990374;28;20236;-83
2022/04/10 00:53:37;;;;;;;;;;;3.50;82.20;;;;;;4998206;28;20219;-83
2022/04/10 00:56:07;;;;;;;;;;;3.40;82.50;;;;;;4993405;28;20342;-83
2022/04/10 00:58:33;;;;;;;;;;;3.50;82.90;;;;;;4991854;28;20394;-84
2022/04/10 01:00:59;;;;;;;;;;;3.50;82.70;;;;;;4987519;28;20367;-83
2022/04/10 01:03:25;;;;;;;;;;;3.50;82.70;;;;;;4975422;28;20227;-83
2022/04/10 01:05:51;;;;;;;;;;;3.40;82.70;;;;;;4988593;28;20231;-83
2022/04/10 01:08:17;;;;;;;;;;;3.50;82.50;;;;;;4988584;28;20235;-83
2022/04/10 01:10:43;;;;;;;;;;;3.50;82.50;;;;;;4989994;28;20247;-83
2022/04/10 01:13:10;;;;;;;;;;;3.50;82.20;;;;;;4989480;28;20142;-85
2022/04/10 01:15:37;;;;;;;;;;;3.40;82.70;;;;;;4992785;28;20179;-83
2022/04/10 01:18:03;;;;;;;;;;;3.40;82.50;;;;;;4985688;28;20740;-83
2022/04/10 01:20:28;;;;;;;;;;;3.40;82.80;;;;;;4987593;28;20467;-83
2022/04/10 01:22:55;;;;;;;;;;;3.40;82.70;;;;;;4982129;28;20317;-83
2022/04/10 01:25:20;;;;;;;;;;;3.50;82.60;;;;;;4989994;28;20081;-83
2022/04/10 01:27:47;;;;;;;;;;;3.50;82.70;;;;;;5016197;28;19957;-83
2022/04/10 01:30:13;;;;;;;;;;;3.50;82.40;;;;;;5090695;28;19920;-82
2022/04/10 01:32:38;;;;;;;;;;;3.50;82.90;;;;;;5091449;28;19912;-83
2022/04/10 01:35:04;;;;;;;;;;;3.50;82.70;;;;;;5104022;28;19966;-83
2022/04/10 01:37:31;;;;;;;;;;;3.50;82.30;;;;;;5107749;28;20057;-83
2022/04/10 01:39:57;;;;;;;;;;;3.50;82.60;;;;;;5104581;28;19908;-83
2022/04/10 01:42:22;;;;;;;;;;;3.50;82.70;;;;;;5099410;28;19931;-83
2022/04/10 01:44:47;;;;;;;;;;;3.40;82.30;;;;;;5094447;28;19930;-83
2022/04/10 01:47:14;;;;;;;;;;;3.50;82.20;;;;;;5096840;28;19916;-83
2022/04/10 01:49:39;;;;;;;;;;;3.50;82.20;;;;;;5093385;28;19950;-83
2022/04/10 01:52:05;;;;;;;;;;;3.40;82.00;;;;;;5093148;28;19916;-83
2022/04/10 01:54:31;;;;;;;;;;;3.50;82.30;;;;;;5093041;28;19908;-83
2022/04/10 01:56:56;;;;;;;;;;;3.50;82.60;;;;;;5094034;28;19912;-83
2022/04/10 01:59:22;;;;;;;;;;;3.50;82.00;;;;;;5093950;28;20252;-84
2022/04/10 02:01:48;;;;;;;;;;;3.50;82.10;;;;;;5090581;28;20324;-83
2022/04/10 02:04:14;;;;;;;;;;;3.40;81.90;;;;;;5091461;28;19916;-83
2022/04/10 02:06:39;;;;;;;;;;;3.50;81.70;;;;;;5072879;28;19916;-83
2022/04/10 02:09:05;;;;;;;;;;;3.50;81.90;;;;;;5091908;28;19923;-83
2022/04/10 02:11:31;;;;;;;;;;;3.40;81.70;;;;;;5093363;28;19926;-83
2022/04/10 02:13:56;;;;;;;;;;;3.30;82.30;;;;;;5091393;28;20368;-83
2022/04/10 02:16:22;;;;;;;;;;;3.40;82.20;;;;;;5083249;28;20359;-83
2022/04/10 02:18:47;;;;;;;;;;;3.40;82.00;;;;;;5091313;28;19908;-83
2022/04/10 02:21:13;;;;;;;;;;;3.50;81.60;;;;;;5092555;28;19920;-83
2022/04/10 02:23:38;;;;;;;;;;;3.40;82.10;;;;;;5087882;28;20003;-83
2022/04/10 02:26:04;;;;;;;;;;;3.40;81.80;;;;;;5096138;28;19915;-83
2022/04/10 02:28:30;;;;;;;;;;;3.40;82.00;;;;;;5093938;28;20019;-83
2022/04/10 02:30:56;;;;;;;;;;;3.30;82.10;;;;;;5089193;28;19924;-83
2022/04/10 02:33:21;;;;;;;;;;;3.30;82.50;;;;;;5088718;28;20242;-83
2022/04/10 02:35:47;;;;;;;;;;;3.40;81.90;;;;;;5088656;28;19919;-83
2022/04/10 02:38:12;;;;;;;;;;;3.30;82.20;;;;;;5088400;28;19923;-82
2022/04/10 02:40:38;;;;;;;;;;;3.30;82.40;;;;;;5079473;28;19912;-83
2022/04/10 02:43:03;;;;;;;;;;;3.50;81.70;;;;;;5087672;28;19912;-83
2022/04/10 02:45:29;;;;;;;;;;;3.40;81.70;;;;;;5090465;28;20003;-83
2022/04/10 02:47:55;;;;;;;;;;;3.40;82.20;;;;;;5089840;28;19924;-83
2022/04/10 02:50:20;;;;;;;;;;;3.40;82.10;;;;;;5088785;28;19912;-83
2022/04/10 02:52:45;;;;;;;;;;;3.40;81.90;;;;;;5097791;28;19916;-83
2022/04/10 02:55:11;;;;;;;;;;;3.40;81.40;;;;;;5090213;28;19912;-83
2022/04/10 02:57:37;;;;;;;;;;;3.30;81.90;;;;;;5089233;28;20263;-83
2022/04/10 03:00:04;;;;;;;;;;;3.30;82.00;;;;;;5094513;28;19927;-83
2022/04/10 03:02:30;;;;;;;;;;;3.30;82.10;;;;;;5082749;28;19913;-83
2022/04/10 03:04:55;;;;;;;;;;;3.30;81.50;;;;;;5108621;28;19920;-83
2022/04/10 03:07:21;;;;;;;;;;;3.30;81.60;;;;;;5094791;28;20302;-83
2022/04/10 03:09:47;;;;;;;;;;;3.30;82.00;;;;;;5092007;28;19916;-83
2022/04/10 03:12:12;;;;;;;;;;;3.30;81.70;;;;;;5092581;28;19916;-83
2022/04/10 03:14:38;;;;;;;;;;;3.30;81.70;;;;;;5090752;28;19962;-83
2022/04/10 03:17:04;;;;;;;;;;;3.20;81.60;;;;;;5094386;28;20004;-83
2022/04/10 03:19:29;;;;;;;;;;;3.20;82.00;;;;;;5090420;28;19909;-83
2022/04/10 03:21:55;;;;;;;;;;;3.20;81.70;;;;;;5092662;28;19912;-83
2022/04/10 03:24:20;;;;;;;;;;;3.10;82.10;;;;;;5110166;28;19915;-83
2022/04/10 03:26:46;;;;;;;;;;;3.10;82.40;;;;;;5088929;28;19912;-84
2022/04/10 03:29:12;;;;;;;;;;;3.10;82.60;;;;;;5091205;28;19912;-83
2022/04/10 03:31:38;;;;;;;;;;;3.10;82.70;;;;;;5091953;28;19916;-83
2022/04/10 03:34:03;;;;;;;;;;;3.00;82.60;;;;;;5092678;28;19923;-83
2022/04/10 03:36:29;;;;;;;;;;;3.00;82.50;;;;;;5091573;28;19973;-83
2022/04/10 03:38:54;;;;;;;;;;;3.10;81.90;;;;;;5091281;28;19916;-83
2022/04/10 03:41:19;;;;;;;;;;;3.10;82.00;;;;;;5089030;28;19912;-83
2022/04/10 03:43:45;;;;;;;;;;;3.10;82.10;;;;;;5093049;28;19912;-84
2022/04/10 03:46:10;;;;;;;;;;;3.10;82.10;;;;;;5091761;28;20007;-84
2022/04/10 03:48:36;;;;;;;;;;;3.10;82.00;;;;;;5091111;28;19928;-84
2022/04/10 03:51:01;;;;;;;;;;;3.00;82.10;;;;;;5084796;28;20236;-83
2022/04/10 03:53:27;;;;;;;;;;;3.00;82.30;;;;;;5089287;28;19912;-83
2022/04/10 03:55:52;;;;;;;;;;;3.00;82.50;;;;;;5099652;28;20007;-83
2022/04/10 03:58:18;;;;;;;;;;;3.00;82.50;;;;;;5097042;28;19916;-83
2022/04/10 04:00:44;;;;;;;;;;;3.00;82.30;;;;;;5097898;28;19916;-83
2022/04/10 04:03:10;;;;;;;;;;;3.00;82.50;;;;;;5098076;28;19935;-83
2022/04/10 04:05:35;;;;;;;;;;;3.00;82.40;;;;;;5095795;28;19912;-83
2022/04/10 04:08:01;;;;;;;;;;;3.00;82.50;;;;;;5102272;28;20047;-83
2022/04/10 04:10:27;;;;;;;;;;;3.00;82.10;;;;;;5095275;28;20045;-83
2022/04/10 04:12:52;;;;;;;;;;;3.10;82.40;;;;;;5095699;28;20010;-83
2022/04/10 04:15:18;;;;;;;;;;;3.10;82.10;;;;;;5094410;28;20298;-82
2022/04/10 04:17:43;;;;;;;;;;;3.10;81.60;;;;;;5088333;28;19916;-83
2022/04/10 04:20:10;;;;;;;;;;;3.00;82.20;;;;;;5092473;28;19916;-82
2022/04/10 04:22:35;;;;;;;;;;;3.00;82.60;;;;;;5093737;28;19918;-83
2022/04/10 04:25:06;;;;;;;;;;;3.00;82.40;;;;;;5101780;28;20003;-84
2022/04/10 04:27:31;;;;;;;;;;;3.00;82.00;;;;;;5099393;28;19919;-84
2022/04/10 04:29:57;;;;;;;;;;;2.90;82.20;;;;;;5095939;28;19920;-83
2022/04/10 04:32:22;;;;;;;;;;;2.90;82.50;;;;;;5097969;28;19923;-83
2022/04/10 04:34:48;;;;;;;;;;;2.90;82.50;;;;;;5097815;28;19994;-83
2022/04/10 04:37:13;;;;;;;;;;;2.90;82.70;;;;;;5095327;28;19935;-83
2022/04/10 04:39:39;;;;;;;;;;;2.90;82.90;;;;;;5094769;28;19912;-83
2022/04/10 04:42:04;;;;;;;;;;;2.90;83.10;;;;;;5095023;28;19912;-83
2022/04/10 04:44:30;;;;;;;;;;;2.90;82.90;;;;;;5090854;28;19931;-83
2022/04/10 04:46:56;;;;;;;;;;;2.80;82.50;;;;;;5096576;28;19939;-84
2022/04/10 04:49:22;;;;;;;;;;;2.90;82.70;;;;;;5094030;28;19912;-83
2022/04/10 04:51:47;;;;;;;;;;;2.80;82.30;;;;;;5094280;28;19916;-83
2022/04/10 04:54:13;;;;;;;;;;;2.80;82.70;;;;;;5095109;28;19942;-83
2022/04/10 04:56:38;;;;;;;;;;;2.70;82.20;;;;;;5084216;28;19919;-83
2022/04/10 04:59:03;;;;;;;;;;;2.80;82.20;;;;;;5093601;28;19912;-83
2022/04/10 05:01:29;;;;;;;;;;;2.70;82.40;;;;;;5094992;28;19912;-83
2022/04/10 05:03:54;;;;;;;;;;;2.80;82.70;;;;;;5096602;28;19923;-83
2022/04/10 05:06:20;;;;;;;;;;;2.80;82.50;;;;;;5096124;28;19912;-83
2022/04/10 05:08:46;;;;;;;;;;;2.80;82.70;;;;;;5098907;28;19931;-82
2022/04/10 05:11:12;;;;;;;;;;;2.90;82.50;;;;;;5096552;28;19920;-84
2022/04/10 05:13:39;;;;;;;;;;;2.90;82.60;;;;;;5095264;28;19944;-83
2022/04/10 05:16:05;;;;;;;;;;;3.00;81.90;;;;;;5095658;28;19919;-83
2022/04/10 05:18:30;;;;;;;;;;;2.90;82.30;;;;;;5092070;28;19913;-83
2022/04/10 05:20:56;;;;;;;;;;;2.90;82.50;;;;;;5095104;28;19939;-82
2022/04/10 05:23:21;;;;;;;;;;;3.00;82.50;;;;;;5117715;28;19976;-83
2022/04/10 05:25:48;;;;;;;;;;;3.10;82.40;;;;;;5097614;28;19934;-83
2022/04/10 05:28:14;;;;;;;;;;;3.10;82.40;;;;;;5087760;28;19974;-83
2022/04/10 05:30:40;;;;;;;;;;;3.10;82.60;;;;;;5090262;28;19919;-83
2022/04/10 05:33:05;;;;;;;;;;;3.20;82.10;;;;;;5089513;28;19912;-84
2022/04/10 05:35:31;;;;;;;;;;;3.20;81.80;;;;;;5092946;28;19916;-83
2022/04/10 05:37:56;;;;;;;;;;;3.30;81.70;;;;;;5093013;28;19912;-83
2022/04/10 05:40:22;;;;;;;;;;;3.30;81.80;;;;;;5091033;28;20263;-83
2022/04/10 05:42:48;;;;;;;;;;;3.50;81.60;;;;;;5093886;28;19919;-83
2022/04/10 05:45:13;;;;;;;;;;;3.50;81.30;;;;;;5090702;28;19912;-83
2022/04/10 05:47:41;;;;;;;;;;;3.60;81.20;;;;;;5092822;28;19912;-83
2022/04/10 05:50:07;;;;;;;;;;;3.60;81.40;;;;;;5090868;28;20259;-83
2022/04/10 05:52:40;;;;;;;;;;;3.60;81.40;;;;;;5092540;28;19967;-83
2022/04/10 05:55:08;;;;;;;;;;;3.80;81.10;;;;;;5096269;28;19916;-83
2022/04/10 05:57:34;;;;;;;;;;;3.80;80.70;;;;;;5092739;28;20287;-83
2022/04/10 05:59:59;;;;;;;;;;;4.00;80.10;;;;;;5089791;28;19946;-83
2022/04/10 06:02:25;;;;;;;;;;;4.00;80.20;;;;;;5087999;28;19962;-83
2022/04/10 06:04:51;;;;;;;;;;;4.10;79.70;;;;;;5088453;28;19973;-83
2022/04/10 06:07:16;;;;;;;;;;;4.10;79.60;;;;;;5090292;28;19916;-83
2022/04/10 06:09:42;;;;;;;;;;;4.00;79.60;;;;;;5091247;28;19965;-83
2022/04/10 06:12:08;;;;;;;;;;;4.00;79.70;;;;;;5092602;28;19923;-83
2022/04/10 06:14:33;;;;;;;;;;;4.10;79.60;;;;;;5093341;28;19916;-83
2022/04/10 06:16:59;;;;;;;;;;;4.10;80.00;;;;;;5090163;28;20286;-83
2022/04/10 06:19:24;;;;;;;;;;;4.20;79.40;;;;;;5092474;28;19912;-83
2022/04/10 06:21:50;;;;;;;;;;;4.30;79.70;;;;;;5091223;28;19940;-83
2022/04/10 06:24:15;;;;;;;;;;;4.30;79.50;;;;;;5089490;28;20184;-83
2022/04/10 06:26:43;;;;;;;;;;;4.40;78.90;;;;;;5092047;28;20817;-83
2022/04/10 06:29:08;;;;;;;;;;;4.50;78.90;;;;;;5087944;28;19931;-83
2022/04/10 06:31:35;;;;;;;;;;;4.50;78.60;;;;;;5089264;28;20361;-83
2022/04/10 06:34:01;;;;;;;;;;;4.60;78.60;;;;;;5087263;28;19946;-83
2022/04/10 06:36:26;;;;;;;;;;;4.60;78.70;;;;;;5090583;28;19934;-83
2022/04/10 06:38:52;;;;;;;;;;;4.80;78.00;;;;;;5088466;28;19949;-83
2022/04/10 06:41:18;;;;;;;;;;;4.80;77.30;;;;;;5096767;28;19971;-83
2022/04/10 06:43:43;;;;;;;;;;;4.90;77.50;;;;;;5088269;28;19963;-83
2022/04/10 06:46:09;;;;;;;;;;;5.00;77.90;;;;;;5092669;28;20016;-83
2022/04/10 06:48:39;;;;;;;;;;;5.20;77.40;;;;;;5089632;28;20121;-84
2022/04/10 06:51:04;;;;;;;;;;;5.40;76.80;;;;;;5092009;28;19927;-85
2022/04/10 06:53:30;;;;;;;;;;;5.50;76.60;;;;;;5093177;28;19912;-83
2022/04/10 06:55:55;;;;;;;;;;;5.50;76.20;;;;;;5091316;28;19959;-83
2022/04/10 06:58:22;;;;;;;;;;;5.50;76.80;;;;;;5090561;28;19943;-84
2022/04/10 07:00:48;;;;;;;;;;;5.50;75.90;;;;;;5088741;28;19923;-83
2022/04/10 07:03:14;;;;;;;;;;;5.60;75.90;;;;;;5091908;28;19916;-84
2022/04/10 07:05:40;;;;;;;;;;;5.60;75.20;;;;;;5090978;28;19908;-86
2022/04/10 07:08:06;;;;;;;;;;;5.60;75.60;;;;;;5090516;28;19947;-86
2022/04/10 07:10:31;;;;;;;;;;;5.60;75.40;;;;;;5088384;28;19919;-84
2022/04/10 07:12:57;;;;;;;;;;;5.60;75.60;;;;;;5095864;28;20097;-85
2022/04/10 07:15:22;;;;;;;;;;;5.60;75.30;;;;;;5094579;28;19935;-85
2022/04/10 07:17:48;;;;;;;;;;;5.80;75.30;;;;;;5091776;28;19927;-85
2022/04/10 07:20:13;;;;;;;;;;;5.90;75.00;;;;;;5090562;28;19985;-84
2022/04/10 07:25:23;;;;;;;;;;;5.90;74.40;;;;;;5095341;28;20389;-84
2022/04/10 07:27:49;;;;;;;;;;;5.90;74.50;;;;;;5089947;28;19912;-85
2022/04/10 07:30:14;;;;;;;;;;;6.00;73.70;;;;;;5095331;28;20442;-85
2022/04/10 07:32:40;;;;;;;;;;;6.00;74.40;;;;;;5093182;28;20421;-85
2022/04/10 07:35:05;;;;;;;;;;;6.10;73.40;;;;;;5096697;28;19912;-84
2022/04/10 07:37:31;;;;;;;;;;;6.00;73.80;;;;;;5097618;28;19912;-85
2022/04/10 07:39:57;;;;;;;;;;;6.20;74.20;;;;;;5092100;28;19920;-84
2022/04/10 07:42:22;;;;;;;;;;;6.20;73.30;;;;;;5098352;28;20316;-84
2022/04/10 07:44:48;;;;;;;;;;;6.30;73.50;;;;;;5093864;28;19942;-85
2022/04/10 07:47:25;;;;;;;;;;;6.40;72.80;;;;;;5095113;28;20405;-84
2022/04/10 07:49:51;;;;;;;;;;;6.40;72.10;;;;;;5090132;28;19944;-84
2022/04/10 07:52:17;;;;;;;;;;;6.50;71.30;;;;;;5095970;28;19924;-85
2022/04/10 07:54:43;;;;;;;;;;;6.50;71.80;;;;;;5095775;28;19920;-84
2022/04/10 07:57:08;;;;;;;;;;;6.50;70.90;;;;;;5094700;28;20347;-84
2022/04/10 07:59:34;;;;;;;;;;;6.60;70.30;;;;;;5100563;28;19928;-82
2022/04/10 08:01:59;;;;;;;;;;;6.60;69.30;;;;;;5095868;28;19912;-83
2022/04/10 08:04:25;;;;;;;;;;;6.70;69.40;;;;;;5094540;28;19908;-83
2022/04/10 08:06:51;;;;;;;;;;;6.80;69.90;;;;;;5092952;28;20014;-83
2022/04/10 08:09:16;;;;;;;;;;;6.80;69.70;;;;;;5090357;28;20773;-84
2022/04/10 08:11:42;;;;;;;;;;;6.80;67.70;;;;;;5088853;28;19916;-85
2022/04/10 08:14:07;;;;;;;;;;;6.90;67.80;;;;;;5091487;28;20402;-84
2022/04/10 08:16:33;;;;;;;;;;;7.00;67.70;;;;;;5078380;28;19912;-83
2022/04/10 08:18:58;;;;;;;;;;;7.00;67.90;;;;;;5087570;28;19916;-84
2022/04/10 08:21:23;;;;;;;;;;;7.00;67.70;;;;;;5094007;28;20119;-84
2022/04/10 08:23:49;;;;;;;;;;;7.10;67.50;;;;;;5096152;28;20250;-85
2022/04/10 08:26:14;;;;;;;;;;;7.30;67.60;;;;;;5097751;28;19931;-84
2022/04/10 08:28:40;;;;;;;;;;;7.40;66.30;;;;;;5098145;28;19920;-83
2022/04/10 08:31:05;;;;;;;;;;;7.40;65.90;;;;;;5100752;28;19922;-84
2022/04/10 08:33:31;;;;;;;;;;;7.50;66.60;;;;;;5098973;28;19919;-84
2022/04/10 08:35:56;;;;;;;;;;;7.80;66.50;;;;;;5091373;28;19927;-84
2022/04/10 08:38:22;;;;;;;;;;;8.10;65.20;;;;;;5097977;28;21892;-86
2022/04/10 08:40:49;;;;;;;;;;;8.40;63.90;;;;;;5083775;28;19913;-86
2022/04/10 08:43:14;;;;;;;;;;;8.40;62.10;;;;;;5093090;28;19998;-86
2022/04/10 08:45:40;;;;;;;;;;;8.30;62.00;;;;;;5086999;28;20098;-87
2022/04/10 08:48:06;;;;;;;;;;;8.30;63.00;;;;;;5105521;28;19991;-85
2022/04/10 08:50:31;;;;;;;;;;;8.30;62.60;;;;;;5092562;28;19908;-86
2022/04/10 08:52:58;;;;;;;;;;;8.40;62.80;;;;;;5087878;28;19924;-86
2022/04/10 08:55:24;;;;;;;;;;;8.50;60.00;;;;;;5090665;28;20540;-85
2022/04/10 08:57:49;;;;;;;;;;;8.50;59.40;;;;;;5091517;28;19908;-86
2022/04/10 09:00:17;;;;;;;;;;;8.50;59.30;;;;;;5092488;28;20415;-86
2022/04/10 09:03:01;;;;;;;;;;;8.50;60.80;;;;;;5089333;28;20234;-86
2022/04/10 09:05:27;;;;;;;;;;;8.60;60.40;;;;;;5090046;28;19927;-86
2022/04/10 09:08:12;;;;;;;;;;;8.60;60.30;;;;;;5088435;28;20396;-85
2022/04/10 09:10:53;;;;;;;;;;;8.50;59.10;;;;;;5090603;28;20014;-85
2022/04/10 09:13:39;;;;;;;;;;;8.60;60.10;;;;;;5089707;28;19952;-84
2022/04/10 09:16:16;;;;;;;;;;;8.80;60.10;;;;;;5097588;28;20011;-83
2022/04/10 09:18:44;;;;;;;;;;;8.90;57.00;;;;;;5089691;28;19916;-84
2022/04/10 09:21:10;;;;;;;;;;;8.70;57.20;;;;;;5092481;28;19923;-82
2022/04/10 09:23:35;;;;;;;;;;;8.40;58.50;;;;;;5095864;28;20346;-83
2022/04/10 09:26:01;;;;;;;;;;;8.30;58.00;;;;;;5094068;28;20134;-83
2022/04/10 09:28:42;;;;;;;;;;;8.20;59.30;;;;;;5085871;28;20154;-82
2022/04/10 09:31:23;;;;;;;;;;;8.10;59.90;;;;;;5098513;28;19952;-83
2022/04/10 09:33:50;;;;;;;;;;;8.10;57.00;;;;;;5094775;28;19912;-83
2022/04/10 09:36:26;;;;;;;;;;;8.00;57.90;;;;;;5097133;28;20358;-82
2022/04/10 09:38:52;;;;;;;;;;;7.80;58.20;;;;;;5090417;28;19923;-82
2022/04/10 09:41:19;;;;;;;;;;;7.70;59.80;;;;;;5096347;28;19912;-84
2022/04/10 09:43:45;;;;;;;;;;;7.50;62.50;;;;;;5095455;28;19919;-84
2022/04/10 09:46:13;;;;;;;;;;;7.30;64.50;;;;;;5094516;28;19912;-85
2022/04/10 09:48:39;;;;;;;;;;;7.20;66.70;;;;;;5093765;28;19913;-84
2022/04/10 09:51:05;;;;;;;;;;;7.20;66.40;;;;;;5093385;28;19920;-84
2022/04/10 09:53:32;;;;;;;;;;;7.00;68.80;;;;;;5094973;28;19916;-82
2022/04/10 09:56:04;;;;;;;;;;;7.20;69.50;;;;;;5096268;28;19960;-83
2022/04/10 09:58:31;;;;;;;;;;;7.20;69.40;;;;;;5099274;28;19912;-84
2022/04/10 10:00:57;;;;;;;;;;;7.20;69.90;;;;;;5092462;28;20011;-84
2022/04/10 10:03:23;;;;;;;;;;;7.10;69.80;;;;;;5091394;28;19912;-84
2022/04/10 10:05:49;;;;;;;;;;;7.10;69.40;;;;;;5092253;28;19961;-85
2022/04/10 10:08:16;;;;;;;;;;;7.10;69.40;;;;;;5084188;28;20333;-85
2022/04/10 10:10:44;;;;;;;;;;;7.30;70.30;;;;;;5099565;28;19912;-85
2022/04/10 10:13:12;;;;;;;;;;;7.30;67.90;;;;;;5091122;28;19931;-83
2022/04/10 10:15:37;;;;;;;;;;;7.50;67.50;;;;;;5093933;28;19912;-85
2022/04/10 10:18:04;;;;;;;;;;;7.80;67.70;;;;;;5109014;28;19912;-86
2022/04/10 10:20:29;;;;;;;;;;;8.30;64.80;;;;;;5106911;28;19920;-87
2022/04/10 10:22:55;;;;;;;;;;;8.70;64.00;;;;;;5100704;28;19912;-86
2022/04/10 10:25:27;;;;;;;;;;;9.00;66.20;;;;;;5096240;28;19912;-85
2022/04/10 10:28:05;;;;;;;;;;;9.20;63.50;;;;;;5081177;28;19931;-85
2022/04/10 10:30:36;;;;;;;;;;;9.10;62.60;;;;;;5087228;28;19937;-85
2022/04/10 10:33:11;;;;;;;;;;;8.90;61.40;;;;;;5082797;28;19965;-86
2022/04/10 10:35:43;;;;;;;;;;;8.90;60.40;;;;;;5089500;28;20323;-86
2022/04/10 10:38:20;;;;;;;;;;;9.10;60.90;;;;;;5089572;28;19912;-86
2022/04/10 10:40:46;;;;;;;;;;;9.40;57.90;;;;;;5086883;28;19912;-85
2022/04/10 10:43:11;;;;;;;;;;;9.50;56.70;;;;;;5090468;28;19938;-84
2022/04/10 10:45:38;;;;;;;;;;;9.40;57.00;;;;;;5086109;28;19924;-85
2022/04/10 10:48:25;;;;;;;;;;;9.20;53.70;;;;;;5093393;28;19912;-85
2022/04/10 10:50:51;;;;;;;;;;;8.80;53.70;;;;;;5095072;28;19944;-84
2022/04/10 10:53:23;;;;;;;;;;;8.60;52.50;;;;;;5099202;28;19943;-85
2022/04/10 10:55:52;;;;;;;;;;;8.50;53.20;;;;;;5092511;28;19928;-84
2022/04/10 10:58:30;;;;;;;;;;;8.50;53.60;;;;;;5092481;28;19991;-87
2022/04/10 11:00:59;;;;;;;;;;;8.50;52.80;;;;;;5086966;28;19920;-85
2022/04/10 11:03:28;;;;;;;;;;;8.60;53.50;;;;;;5079432;28;20884;-85
2022/04/10 11:06:03;;;;;;;;;;;8.90;54.30;;;;;;5086637;28;20288;-87
2022/04/10 11:08:37;;;;;;;;;;;9.30;51.70;;;;;;5089327;28;19947;-83
2022/04/10 11:11:04;;;;;;;;;;;9.40;50.80;;;;;;5090850;28;20306;-85
2022/04/10 11:13:42;;;;;;;;;;;9.20;50.30;;;;;;5088819;28;20014;-85
2022/04/10 11:16:11;;;;;;;;;;;9.10;50.50;;;;;;5091839;28;19911;-85
2022/04/10 11:18:48;;;;;;;;;;;8.90;52.60;;;;;;5081986;28;20289;-84
2022/04/10 11:21:17;;;;;;;;;;;8.80;53.10;;;;;;5094555;28;19959;-83
2022/04/10 11:23:45;;;;;;;;;;;8.70;53.80;;;;;;5084862;28;19913;-84
2022/04/10 11:26:15;;;;;;;;;;;8.70;52.70;;;;;;5091168;28;19918;-84
2022/04/10 11:29:11;;;;;;;;;;;8.70;54.00;;;;;;5083695;28;19964;-85
2022/04/10 11:31:39;;;;;;;;;;;8.70;53.90;;;;;;5071488;28;21143;-86
2022/04/10 11:34:08;;;;;;;;;;;8.80;51.80;;;;;;5091649;28;19969;-85
2022/04/10 11:36:44;;;;;;;;;;;9.00;51.70;;;;;;5096162;28;20274;-85
2022/04/10 11:39:09;;;;;;;;;;;9.20;51.40;;;;;;5105039;28;19927;-84
2022/04/10 11:41:35;;;;;;;;;;;9.30;51.20;;;;;;5097720;28;19923;-84
2022/04/10 11:44:01;;;;;;;;;;;9.50;50.40;;;;;;5097250;28;19916;-83
2022/04/10 11:46:29;;;;;;;;;;;9.80;51.30;;;;;;5095853;28;19998;-84
2022/04/10 11:48:55;;;;;;;;;;;10.00;49.70;;;;;;5085766;28;19916;-83
2022/04/10 11:51:20;;;;;;;;;;;10.20;48.10;;;;;;5084585;28;20301;-84
2022/04/10 11:53:53;;;;;;;;;;;10.40;47.90;;;;;;5088237;28;19901;-84
2022/04/10 11:56:19;;;;;;;;;;;10.60;48.50;;;;;;5087498;28;19920;-85
2022/04/10 11:58:44;;;;;;;;;;;10.60;47.30;;;;;;5084032;28;19912;-84
2022/04/10 12:01:12;;;;;;;;;;;10.60;46.10;;;;;;5090662;28;19919;-85
2022/04/10 12:03:40;;;;;;;;;;;10.50;46.30;;;;;;5088785;28;19924;-84
2022/04/10 12:06:06;;;;;;;;;;;10.30;44.40;;;;;;5089040;28;20432;-84
2022/04/10 12:08:31;;;;;;;;;;;10.40;44.20;;;;;;5086000;28;20026;-84
2022/04/10 12:10:57;;;;;;;;;;;10.70;45.00;;;;;;5084689;28;19939;-84
2022/04/10 12:13:39;;;;;;;;;;;10.90;46.50;;;;;;5083692;28;19912;-85
2022/04/10 12:16:09;;;;;;;;;;;10.90;45.80;;;;;;5086980;28;20294;-83
2022/04/10 12:18:45;;;;;;;;;;;10.70;44.30;;;;;;5082850;28;20006;-84
2022/04/10 12:21:11;;;;;;;;;;;10.50;44.30;;;;;;5089455;28;19970;-84
2022/04/10 12:23:36;;;;;;;;;;;10.50;45.90;;;;;;5087915;28;19973;-85
2022/04/10 12:26:02;;;;;;;;;;;10.50;45.60;;;;;;5083542;28;20390;-85
2022/04/10 12:28:28;;;;;;;;;;;10.60;45.90;;;;;;5084396;28;20359;-85
2022/04/10 12:30:56;;;;;;;;;;;10.60;46.30;;;;;;5079602;28;19916;-85
2022/04/10 12:33:22;;;;;;;;;;;10.70;45.70;;;;;;5083027;28;19981;-86
2022/04/10 12:35:48;;;;;;;;;;;10.60;48.30;;;;;;5086512;28;19916;-88
2022/04/10 12:38:16;;;;;;;;;;;10.70;47.70;;;;;;5086230;28;19920;-85
2022/04/10 12:40:41;;;;;;;;;;;10.60;45.60;;;;;;5086454;28;20309;-85
2022/04/10 12:43:07;;;;;;;;;;;10.40;46.80;;;;;;5086940;28;20443;-85
2022/04/10 12:45:40;;;;;;;;;;;10.30;46.00;;;;;;5085986;28;19957;-85
2022/04/10 12:48:26;;;;;;;;;;;10.50;45.90;;;;;;5104261;28;20003;-86
2022/04/10 12:51:05;;;;;;;;;;;10.60;44.80;;;;;;5081720;28;21329;-84
2022/04/10 12:53:31;;;;;;;;;;;10.70;45.80;;;;;;5086363;28;19912;-84
2022/04/10 12:55:56;;;;;;;;;;;10.70;45.10;;;;;;5087502;28;20061;-83
2022/04/10 12:58:22;;;;;;;;;;;10.60;45.60;;;;;;5104064;28;19920;-83
2022/04/10 13:00:48;;;;;;;;;;;10.60;47.40;;;;;;5087521;28;19940;-83
2022/04/10 13:03:23;;;;;;;;;;;10.60;45.70;;;;;;5088466;28;20361;-82
2022/04/10 13:05:59;;;;;;;;;;;10.70;45.20;;;;;;5080770;28;19912;-81
2022/04/10 13:08:25;;;;;;;;;;;10.80;47.50;;;;;;5081715;28;19924;-83
2022/04/10 13:10:52;;;;;;;;;;;11.00;45.60;;;;;;5078672;28;19939;-83
2022/04/10 13:13:17;;;;;;;;;;;11.20;43.50;;;;;;5084574;28;20392;-82
2022/04/10 13:15:43;;;;;;;;;;;11.10;42.50;;;;;;5079351;28;19920;-81
2022/04/10 13:18:09;;;;;;;;;;;11.00;45.00;;;;;;5084428;28;19965;-83
2022/04/10 13:20:39;;;;;;;;;;;10.90;44.00;;;;;;5083032;28;19921;-82
2022/04/10 13:23:04;;;;;;;;;;;11.00;44.70;;;;;;5078304;28;19920;-83
2022/04/10 13:25:33;;;;;;;;;;;11.00;45.10;;;;;;5083599;28;19920;-84
2022/04/10 13:27:59;;;;;;;;;;;11.30;45.50;;;;;;5081650;28;19928;-84
2022/04/10 13:30:25;;;;;;;;;;;11.50;47.30;;;;;;5083894;28;20329;-84
2022/04/10 13:32:50;;;;;;;;;;;11.60;45.60;;;;;;5081662;28;19966;-83
2022/04/10 13:35:16;;;;;;;;;;;11.70;43.20;;;;;;5083344;28;19942;-83
2022/04/10 13:37:42;;;;;;;;;;;11.70;44.10;;;;;;5085742;28;19994;-82
2022/04/10 13:40:08;;;;;;;;;;;11.60;44.80;;;;;;5079399;28;20096;-84
2022/04/10 13:42:34;;;;;;;;;;;11.50;43.70;;;;;;5077941;28;19920;-85
2022/04/10 13:45:00;;;;;;;;;;;11.40;43.70;;;;;;5092335;28;20370;-84
2022/04/10 13:47:26;;;;;;;;;;;11.00;43.20;;;;;;5094613;28;19941;-85
2022/04/10 13:49:51;;;;;;;;;;;11.00;44.60;;;;;;5083215;28;20313;-84
2022/04/10 13:52:17;;;;;;;;;;;11.10;45.90;;;;;;5089469;28;20398;-85
2022/04/10 13:54:42;;;;;;;;;;;11.00;46.70;;;;;;5085835;28;20389;-85
2022/04/10 13:57:08;;;;;;;;;;;11.00;44.40;;;;;;5082959;28;19931;-85
2022/04/10 13:59:33;;;;;;;;;;;10.90;43.90;;;;;;5087406;28;19965;-84
2022/04/10 14:01:59;;;;;;;;;;;11.00;44.40;;;;;;5086280;28;19931;-85
2022/04/10 14:04:24;;;;;;;;;;;10.90;43.90;;;;;;5080955;28;19912;-85
2022/04/10 14:06:49;;;;;;;;;;;10.90;45.60;;;;;;5089306;28;20134;-85
2022/04/10 14:09:15;;;;;;;;;;;10.90;44.00;;;;;;5085915;28;19962;-85
2022/04/10 14:11:41;;;;;;;;;;;11.00;44.90;;;;;;5079901;28;20178;-85
2022/04/10 14:14:06;;;;;;;;;;;11.00;44.80;;;;;;5076475;28;20449;-84
2022/04/10 14:16:32;;;;;;;;;;;11.10;43.20;;;;;;5089000;28;19912;-85
2022/04/10 14:18:59;;;;;;;;;;;11.10;41.90;;;;;;5085334;28;19915;-87
2022/04/10 14:21:24;;;;;;;;;;;11.10;44.00;;;;;;5083197;28;19951;-85
2022/04/10 14:23:50;;;;;;;;;;;11.30;43.40;;;;;;5084721;28;19951;-86
2022/04/10 14:26:15;;;;;;;;;;;11.30;42.10;;;;;;5087044;28;20263;-87
2022/04/10 14:28:41;;;;;;;;;;;11.20;44.20;;;;;;5084144;28;19995;-85
2022/04/10 14:31:06;;;;;;;;;;;11.00;43.60;;;;;;5102879;28;19931;-86
2022/04/10 14:33:32;;;;;;;;;;;10.90;44.40;;;;;;5088478;28;19919;-85